Time;durP1;ratioP1;P1;durP2;ratioP2;P2;SDS_P1;SDS_P2;PMS_P1;PMS_P2;Temp;Humidity;BMP_temperature;BMP_pressure;BME280_temperature;BME280_humidity;BME280_pressure;Samples;Min_cycle;Max_cycle;Signal;HPM_P1;HPM_P2
2023/07/04 00:01:45;;;;;;;14.20;3.53;;;;;;;;;;5040507;28;20053;-75
2023/07/04 00:04:12;;;;;;;16.70;4.03;;;;;;;;;;5045315;28;20017;-75
2023/07/04 00:06:38;;;;;;;12.23;3.00;;;;;;;;;;5032680;28;20068;-75
2023/07/04 00:09:05;;;;;;;18.60;3.75;;;;;;;;;;5032636;28;20017;-76
2023/07/04 00:11:31;;;;;;;11.88;3.30;;;;;;;;;;5032619;28;20425;-75
2023/07/04 00:13:57;;;;;;;18.98;3.55;;;;;;;;;;5032359;28;20018;-75
2023/07/04 00:16:23;;;;;;;13.07;3.17;;;;;;;;;;5032397;28;20033;-75
2023/07/04 00:18:49;;;;;;;12.13;3.42;;;;;;;;;;5032498;28;20036;-76
2023/07/04 00:21:17;;;;;;;12.02;4.13;;;;;;;;;;5032214;28;20025;-75
2023/07/04 00:23:45;;;;;;;13.63;3.00;;;;;;;;;;5032093;28;20025;-73
2023/07/04 00:26:12;;;;;;;13.00;3.47;;;;;;;;;;5032229;28;20052;-74
2023/07/04 00:28:38;;;;;;;14.68;3.65;;;;;;;;;;5032168;28;20394;-74
2023/07/04 00:31:05;;;;;;;12.95;3.88;;;;;;;;;;5032038;28;20035;-73
2023/07/04 00:33:31;;;;;;;12.82;3.33;;;;;;;;;;5031963;28;20032;-73
2023/07/04 00:36:01;;;;;;;17.13;3.45;;;;;;;;;;5032103;28;20147;-74
2023/07/04 00:38:27;;;;;;;16.50;3.63;;;;;;;;;;5032430;28;20076;-73
2023/07/04 00:40:54;;;;;;;12.70;3.42;;;;;;;;;;5031417;28;20033;-74
2023/07/04 00:43:22;;;;;;;12.27;3.40;;;;;;;;;;5031720;28;20025;-74
2023/07/04 00:45:56;;;;;;;12.65;3.75;;;;;;;;;;5032145;28;20097;-73
2023/07/04 00:48:23;;;;;;;14.50;3.28;;;;;;;;;;5032014;28;20123;-75
2023/07/04 00:50:49;;;;;;;13.40;3.78;;;;;;;;;;5031720;28;20029;-75
2023/07/04 00:53:16;;;;;;;14.00;3.63;;;;;;;;;;5031890;28;20479;-74
2023/07/04 00:55:44;;;;;;;8.82;3.53;;;;;;;;;;5032333;28;20034;-75
2023/07/04 00:58:10;;;;;;;10.90;3.45;;;;;;;;;;5031782;28;20038;-74
2023/07/04 01:00:37;;;;;;;15.48;4.10;;;;;;;;;;5031762;28;20088;-75
2023/07/04 01:03:06;;;;;;;21.33;4.10;;;;;;;;;;5031572;28;20168;-73
2023/07/04 01:05:55;;;;;;;12.48;3.60;;;;;;;;;;5031815;28;20044;-73
2023/07/04 01:08:28;;;;;;;15.40;3.97;;;;;;;;;;5031624;28;20036;-75
2023/07/04 01:10:55;;;;;;;12.47;4.10;;;;;;;;;;5031562;28;20029;-74
2023/07/04 01:13:36;;;;;;;18.38;3.75;;;;;;;;;;5031731;28;20180;-74
2023/07/04 01:16:04;;;;;;;12.10;3.50;;;;;;;;;;5032067;28;20036;-75
2023/07/04 01:18:30;;;;;;;12.77;3.35;;;;;;;;;;5031466;28;20108;-75
2023/07/04 01:20:57;;;;;;;13.70;3.45;;;;;;;;;;5031834;28;20025;-73
2023/07/04 01:23:43;;;;;;;12.10;2.88;;;;;;;;;;5033376;28;20030;-74
2023/07/04 01:26:09;;;;;;;14.25;3.13;;;;;;;;;;5034532;28;20032;-73
2023/07/04 01:28:35;;;;;;;17.15;2.83;;;;;;;;;;5031630;28;20426;-74
2023/07/04 01:31:01;;;;;;;14.95;3.08;;;;;;;;;;5030450;28;20018;-74
2023/07/04 01:33:27;;;;;;;13.80;2.63;;;;;;;;;;5031207;28;20471;-73
2023/07/04 01:35:53;;;;;;;14.90;2.90;;;;;;;;;;5031381;28;20104;-75
2023/07/04 01:38:20;;;;;;;13.25;2.67;;;;;;;;;;5031301;28;20416;-73
2023/07/04 01:40:46;;;;;;;13.18;2.88;;;;;;;;;;5031446;28;20030;-74
2023/07/04 01:43:12;;;;;;;14.20;2.50;;;;;;;;;;5031195;28;20017;-74
2023/07/04 01:45:38;;;;;;;13.95;3.15;;;;;;;;;;5031245;28;20022;-73
2023/07/04 01:48:04;;;;;;;15.40;3.45;;;;;;;;;;5031516;28;20407;-73
2023/07/04 01:50:30;;;;;;;12.40;2.90;;;;;;;;;;5031199;28;20026;-75
2023/07/04 01:52:56;;;;;;;14.00;2.97;;;;;;;;;;5033058;28;20029;-74
2023/07/04 01:55:22;;;;;;;18.60;2.90;;;;;;;;;;5035181;28;20036;-74
2023/07/04 01:57:48;;;;;;;16.80;3.22;;;;;;;;;;5034835;28;20033;-75
2023/07/04 02:00:14;;;;;;;19.77;3.60;;;;;;;;;;5035435;28;20166;-74
2023/07/04 02:02:41;;;;;;;11.60;2.38;;;;;;;;;;5034590;28;20412;-74
2023/07/04 02:05:07;;;;;;;18.80;3.40;;;;;;;;;;5035044;28;20426;-74
2023/07/04 02:07:34;;;;;;;13.88;2.70;;;;;;;;;;5034757;28;20508;-75
2023/07/04 02:09:59;;;;;;;20.60;2.97;;;;;;;;;;5034863;28;20029;-74
2023/07/04 02:12:25;;;;;;;13.48;2.95;;;;;;;;;;5034482;28;20586;-74
2023/07/04 02:14:51;;;;;;;14.05;3.00;;;;;;;;;;5035018;28;20076;-74
2023/07/04 02:17:17;;;;;;;15.57;2.50;;;;;;;;;;5034902;28;20217;-71
2023/07/04 02:19:43;;;;;;;12.93;2.40;;;;;;;;;;5032402;28;20458;-75
2023/07/04 02:22:09;;;;;;;11.38;2.40;;;;;;;;;;5034040;28;20115;-75
2023/07/04 02:24:35;;;;;;;16.05;2.90;;;;;;;;;;5028276;28;20022;-75
2023/07/04 02:27:01;;;;;;;12.57;3.25;;;;;;;;;;5015206;28;20430;-76
2023/07/04 02:29:27;;;;;;;12.73;2.70;;;;;;;;;;5015443;28;20021;-75
2023/07/04 02:31:53;;;;;;;14.48;2.40;;;;;;;;;;5014270;28;20130;-74
2023/07/04 02:34:19;;;;;;;11.10;2.78;;;;;;;;;;5014929;28;20080;-75
2023/07/04 02:36:45;;;;;;;13.15;3.22;;;;;;;;;;5014802;28;20022;-75
2023/07/04 02:39:11;;;;;;;19.65;3.83;;;;;;;;;;5015327;28;20049;-75
2023/07/04 02:41:37;;;;;;;9.82;2.78;;;;;;;;;;5013754;28;20026;-75
2023/07/04 02:44:04;;;;;;;12.55;3.00;;;;;;;;;;5014353;28;20053;-75
2023/07/04 02:46:30;;;;;;;9.00;3.22;;;;;;;;;;5014659;28;20091;-75
2023/07/04 02:48:56;;;;;;;16.35;3.42;;;;;;;;;;5014389;28;20544;-74
2023/07/04 02:51:22;;;;;;;14.95;4.95;;;;;;;;;;5014559;28;20041;-74
2023/07/04 02:53:48;;;;;;;19.33;2.97;;;;;;;;;;5014129;28;20103;-73
2023/07/04 02:56:14;;;;;;;17.20;2.90;;;;;;;;;;5014273;28;20029;-74
2023/07/04 02:58:40;;;;;;;11.95;2.97;;;;;;;;;;5014229;28;20034;-73
2023/07/04 03:01:07;;;;;;;17.45;3.55;;;;;;;;;;5013841;28;20042;-74
2023/07/04 03:03:33;;;;;;;13.68;3.03;;;;;;;;;;5012960;28;20471;-74
2023/07/04 03:05:59;;;;;;;15.40;2.83;;;;;;;;;;5013658;28;20110;-73
2023/07/04 03:08:25;;;;;;;15.57;3.40;;;;;;;;;;5013933;28;20021;-74
2023/07/04 03:10:51;;;;;;;14.10;3.05;;;;;;;;;;5013821;28;20037;-74
2023/07/04 03:13:17;;;;;;;17.90;3.50;;;;;;;;;;5013391;28;20034;-73
2023/07/04 03:15:44;;;;;;;13.45;2.65;;;;;;;;;;5014293;28;20072;-74
2023/07/04 03:18:10;;;;;;;14.77;3.03;;;;;;;;;;5013774;28;20018;-75
2023/07/04 03:20:36;;;;;;;15.35;2.95;;;;;;;;;;5013403;28;20095;-74
2023/07/04 03:23:02;;;;;;;15.90;2.42;;;;;;;;;;5012621;28;20113;-73
2023/07/04 03:25:28;;;;;;;20.40;3.30;;;;;;;;;;5013918;28;20030;-74
2023/07/04 03:27:54;;;;;;;9.18;2.38;;;;;;;;;;5014831;28;20018;-75
2023/07/04 03:30:20;;;;;;;11.82;2.83;;;;;;;;;;5014639;28;20053;-74
2023/07/04 03:32:46;;;;;;;12.98;3.15;;;;;;;;;;5012885;28;20044;-73
2023/07/04 03:35:12;;;;;;;17.55;2.90;;;;;;;;;;5013348;28;20454;-74
2023/07/04 03:37:38;;;;;;;15.75;3.75;;;;;;;;;;5013353;28;20116;-73
2023/07/04 03:40:09;;;;;;;14.82;2.97;;;;;;;;;;5013608;28;20030;-74
2023/07/04 03:42:35;;;;;;;18.13;4.07;;;;;;;;;;5013210;28;20428;-75
2023/07/04 03:45:01;;;;;;;12.77;3.63;;;;;;;;;;5013571;28;20546;-73
2023/07/04 03:47:28;;;;;;;15.43;3.53;;;;;;;;;;5013173;28;20050;-73
2023/07/04 03:49:54;;;;;;;15.50;3.85;;;;;;;;;;5011621;28;20115;-74
2023/07/04 03:52:20;;;;;;;16.38;4.32;;;;;;;;;;5012692;28;20453;-75
2023/07/04 03:54:46;;;;;;;23.77;5.00;;;;;;;;;;5013258;28;20037;-74
2023/07/04 03:57:12;;;;;;;16.85;4.97;;;;;;;;;;5013721;28;20049;-73
2023/07/04 03:59:38;;;;;;;13.50;4.70;;;;;;;;;;5015510;28;20061;-74
2023/07/04 04:02:04;;;;;;;19.50;5.00;;;;;;;;;;5013957;28;20464;-73
2023/07/04 04:04:38;;;;;;;16.67;4.53;;;;;;;;;;5013513;28;20026;-74
2023/07/04 04:07:07;;;;;;;19.35;5.35;;;;;;;;;;5013616;28;20018;-73
2023/07/04 04:09:33;;;;;;;18.45;4.57;;;;;;;;;;5013799;28;20472;-77
2023/07/04 04:11:59;;;;;;;16.58;4.68;;;;;;;;;;5012552;28;20080;-74
2023/07/04 04:14:25;;;;;;;21.90;4.80;;;;;;;;;;5012808;28;20075;-74
2023/07/04 04:16:52;;;;;;;17.58;4.55;;;;;;;;;;5011594;28;20033;-74
2023/07/04 04:19:17;;;;;;;18.23;4.72;;;;;;;;;;5012995;28;20111;-74
2023/07/04 04:21:43;;;;;;;26.65;5.00;;;;;;;;;;5013050;28;20058;-74
2023/07/04 04:24:09;;;;;;;21.80;4.47;;;;;;;;;;5012797;28;20026;-74
2023/07/04 04:26:38;;;;;;;21.63;4.60;;;;;;;;;;5012717;28;20029;-74
2023/07/04 04:29:05;;;;;;;17.38;4.82;;;;;;;;;;5013401;28;20025;-77
2023/07/04 04:31:33;;;;;;;12.57;4.50;;;;;;;;;;5012489;28;20026;-77
2023/07/04 04:33:59;;;;;;;19.85;4.68;;;;;;;;;;5027469;28;20104;-77
2023/07/04 04:36:25;;;;;;;18.02;4.63;;;;;;;;;;5029027;28;20029;-77
2023/07/04 04:38:51;;;;;;;19.77;4.35;;;;;;;;;;5032750;28;20516;-76
2023/07/04 04:41:17;;;;;;;15.05;4.32;;;;;;;;;;5040200;28;20029;-75
2023/07/04 04:43:43;;;;;;;26.15;4.43;;;;;;;;;;5036938;28;20018;-78
2023/07/04 04:46:09;;;;;;;16.67;4.28;;;;;;;;;;5038966;28;20435;-78
2023/07/04 04:48:36;;;;;;;18.85;4.90;;;;;;;;;;5042629;28;20040;-78
2023/07/04 04:51:15;;;;;;;24.25;4.60;;;;;;;;;;5037217;28;20037;-77
2023/07/04 04:53:44;;;;;;;20.73;4.53;;;;;;;;;;5039645;28;20053;-78
2023/07/04 04:56:10;;;;;;;22.85;4.80;;;;;;;;;;5052557;28;20055;-75
2023/07/04 04:58:37;;;;;;;17.90;4.57;;;;;;;;;;5052112;28;20033;-76
2023/07/04 05:01:11;;;;;;;19.77;4.25;;;;;;;;;;5052361;28;20498;-75
2023/07/04 05:03:37;;;;;;;21.40;4.90;;;;;;;;;;5051618;28;20032;-75
2023/07/04 05:06:05;;;;;;;18.83;4.15;;;;;;;;;;5051690;28;20017;-75
2023/07/04 05:08:31;;;;;;;18.98;4.40;;;;;;;;;;5052111;28;20017;-77
2023/07/04 05:11:02;;;;;;;20.42;4.28;;;;;;;;;;5051275;28;20021;-77
2023/07/04 05:13:28;;;;;;;17.73;3.42;;;;;;;;;;5051338;28;20064;-75
2023/07/04 05:16:01;;;;;;;16.63;3.90;;;;;;;;;;5051838;28;20063;-76
2023/07/04 05:18:28;;;;;;;12.95;3.55;;;;;;;;;;5053005;28;20036;-75
2023/07/04 05:21:04;;;;;;;25.30;4.15;;;;;;;;;;5050931;28;20413;-75
2023/07/04 05:23:31;;;;;;;17.80;4.38;;;;;;;;;;5051699;28;20025;-74
2023/07/04 05:26:05;;;;;;;17.30;3.70;;;;;;;;;;5052053;28;20439;-75
2023/07/04 05:28:31;;;;;;;19.67;3.92;;;;;;;;;;5054336;28;20027;-77
2023/07/04 05:30:58;;;;;;;28.33;5.03;;;;;;;;;;5055941;28;20040;-73
2023/07/04 05:33:24;;;;;;;19.85;3.83;;;;;;;;;;5055873;28;20036;-74
2023/07/04 05:35:50;;;;;;;19.23;3.47;;;;;;;;;;5056272;28;20088;-74
2023/07/04 05:38:16;;;;;;;14.73;3.53;;;;;;;;;;5056736;28;20029;-74
2023/07/04 05:40:42;;;;;;;17.27;3.33;;;;;;;;;;5058164;28;20048;-73
2023/07/04 05:43:07;;;;;;;17.92;4.00;;;;;;;;;;5056376;28;20127;-75
2023/07/04 05:45:33;;;;;;;18.90;3.78;;;;;;;;;;5056592;28;20146;-74
2023/07/04 05:47:59;;;;;;;16.92;3.83;;;;;;;;;;5054020;28;20478;-74
2023/07/04 05:50:25;;;;;;;20.42;4.05;;;;;;;;;;5056312;28;20030;-74
2023/07/04 05:52:51;;;;;;;24.02;4.32;;;;;;;;;;5034642;28;20056;-74
2023/07/04 05:55:17;;;;;;;27.88;4.57;;;;;;;;;;5040442;28;20394;-75
2023/07/04 05:57:43;;;;;;;17.65;4.20;;;;;;;;;;5035874;28;20037;-74
2023/07/04 06:00:10;;;;;;;32.53;4.03;;;;;;;;;;5040863;28;20040;-74
2023/07/04 06:02:36;;;;;;;19.38;3.85;;;;;;;;;;5043768;28;20028;-75
2023/07/04 06:05:03;;;;;;;14.98;3.67;;;;;;;;;;5043163;28;20029;-74
2023/07/04 06:07:32;;;;;;;19.70;3.67;;;;;;;;;;5052695;28;20024;-75
2023/07/04 06:09:58;;;;;;;14.43;3.78;;;;;;;;;;5037900;28;20033;-79
2023/07/04 06:12:24;;;;;;;16.27;3.50;;;;;;;;;;5039056;28;20021;-78
2023/07/04 06:14:50;;;;;;;20.30;4.10;;;;;;;;;;5035109;28;20113;-73
2023/07/04 06:17:16;;;;;;;18.90;4.28;;;;;;;;;;5035370;28;20067;-74
2023/07/04 06:19:42;;;;;;;25.33;3.80;;;;;;;;;;5034183;28;20104;-74
2023/07/04 06:22:08;;;;;;;25.63;4.35;;;;;;;;;;5034300;28;20114;-74
2023/07/04 06:24:36;;;;;;;22.58;3.85;;;;;;;;;;5034720;28;20053;-75
2023/07/04 06:27:02;;;;;;;19.42;3.78;;;;;;;;;;5034709;28;20017;-75
2023/07/04 06:29:28;;;;;;;14.85;3.17;;;;;;;;;;5032982;28;20056;-75
2023/07/04 06:31:54;;;;;;;19.05;3.45;;;;;;;;;;5033569;28;20514;-74
2023/07/04 06:34:20;;;;;;;14.25;3.10;;;;;;;;;;5034005;28;20059;-73
2023/07/04 06:36:50;;;;;;;18.33;3.60;;;;;;;;;;5034201;28;20032;-74
2023/07/04 06:39:16;;;;;;;18.52;4.10;;;;;;;;;;5033714;28;20053;-74
2023/07/04 06:41:42;;;;;;;17.05;3.55;;;;;;;;;;5036183;28;20036;-74
2023/07/04 06:44:08;;;;;;;16.02;3.67;;;;;;;;;;5036084;28;20383;-75
2023/07/04 06:46:34;;;;;;;23.17;3.85;;;;;;;;;;5035422;28;20026;-73
2023/07/04 06:49:00;;;;;;;13.73;3.05;;;;;;;;;;5034735;28;20116;-75
2023/07/04 06:51:29;;;;;;;13.65;2.85;;;;;;;;;;5036232;28;20056;-73
2023/07/04 06:53:55;;;;;;;13.25;2.88;;;;;;;;;;5032447;28;20116;-74
2023/07/04 06:56:23;;;;;;;14.90;3.20;;;;;;;;;;5033819;28;20529;-74
2023/07/04 06:58:50;;;;;;;17.08;2.78;;;;;;;;;;5033320;28;20029;-73
2023/07/04 07:01:17;;;;;;;13.77;3.35;;;;;;;;;;5033131;28;20029;-70
2023/07/04 07:03:43;;;;;;;15.23;3.05;;;;;;;;;;5032504;28;20025;-71
2023/07/04 07:06:10;;;;;;;20.25;3.03;;;;;;;;;;5032954;28;20101;-74
2023/07/04 07:08:36;;;;;;;16.15;3.05;;;;;;;;;;5032734;28;20018;-74
2023/07/04 07:11:04;;;;;;;18.35;3.05;;;;;;;;;;5032896;28;20097;-74
2023/07/04 07:13:30;;;;;;;19.15;2.47;;;;;;;;;;5032452;28;20033;-73
2023/07/04 07:16:13;;;;;;;11.45;3.00;;;;;;;;;;5033691;28;20064;-72
2023/07/04 07:18:40;;;;;;;17.35;3.10;;;;;;;;;;5034702;28;20078;-72
2023/07/04 07:21:07;;;;;;;10.85;3.08;;;;;;;;;;5034236;28;20021;-73
2023/07/04 07:23:34;;;;;;;15.32;2.78;;;;;;;;;;5032198;28;20087;-74
2023/07/04 07:26:01;;;;;;;12.15;3.05;;;;;;;;;;5032573;28;20399;-76
2023/07/04 07:28:28;;;;;;;12.57;3.22;;;;;;;;;;5032287;28;20061;-73
2023/07/04 07:31:20;;;;;;;13.05;2.95;;;;;;;;;;5032279;28;20022;-73
2023/07/04 07:33:48;;;;;;;13.52;3.47;;;;;;;;;;5028358;28;20047;-73
2023/07/04 07:36:21;;;;;;;10.48;3.40;;;;;;;;;;5032538;28;20028;-73
2023/07/04 07:38:48;;;;;;;16.60;3.42;;;;;;;;;;5032680;28;20033;-73
2023/07/04 07:41:14;;;;;;;25.23;4.07;;;;;;;;;;5031952;28;20056;-74
2023/07/04 07:43:40;;;;;;;13.00;3.42;;;;;;;;;;5031413;28;20025;-75
2023/07/04 07:46:07;;;;;;;17.05;3.78;;;;;;;;;;5031862;28;20392;-75
2023/07/04 07:48:33;;;;;;;18.80;3.75;;;;;;;;;;5032587;28;20013;-74
2023/07/04 07:50:59;;;;;;;16.10;3.10;;;;;;;;;;5032866;28;20033;-74
2023/07/04 07:53:25;;;;;;;9.52;3.17;;;;;;;;;;5035062;28;20037;-75
2023/07/04 07:55:51;;;;;;;13.07;3.83;;;;;;;;;;5032345;28;20028;-75
2023/07/04 07:58:17;;;;;;;21.65;3.40;;;;;;;;;;5032704;28;20083;-72
2023/07/04 08:00:43;;;;;;;10.35;2.90;;;;;;;;;;5032527;28;20101;-73
2023/07/04 08:03:09;;;;;;;12.98;3.33;;;;;;;;;;5032344;28;20491;-75
2023/07/04 08:05:42;;;;;;;11.32;3.47;;;;;;;;;;5032314;28;20092;-73
2023/07/04 08:08:09;;;;;;;15.95;4.10;;;;;;;;;;5032415;28;20053;-73
2023/07/04 08:10:36;;;;;;;12.45;3.10;;;;;;;;;;5019673;28;20119;-74
2023/07/04 08:13:02;;;;;;;13.10;3.50;;;;;;;;;;5012382;28;20026;-74
2023/07/04 08:15:28;;;;;;;16.25;3.65;;;;;;;;;;5022494;28;20033;-75
2023/07/04 08:17:54;;;;;;;15.10;3.47;;;;;;;;;;5032633;28;20068;-74
2023/07/04 08:20:23;;;;;;;15.43;3.58;;;;;;;;;;5032232;28;20116;-76
2023/07/04 08:22:49;;;;;;;14.52;3.40;;;;;;;;;;5032619;28;20388;-74
2023/07/04 08:25:15;;;;;;;18.92;3.08;;;;;;;;;;5032057;28;20076;-75
2023/07/04 08:27:41;;;;;;;7.63;2.30;;;;;;;;;;5032230;28;20028;-73
2023/07/04 08:30:07;;;;;;;9.55;2.33;;;;;;;;;;5032134;28;20108;-75
2023/07/04 08:32:33;;;;;;;11.07;2.83;;;;;;;;;;5031941;28;20030;-75
2023/07/04 08:35:00;;;;;;;9.02;2.30;;;;;;;;;;5032205;28;20032;-73
2023/07/04 08:37:26;;;;;;;11.32;2.78;;;;;;;;;;5032874;28;20395;-75
2023/07/04 08:39:52;;;;;;;9.00;2.92;;;;;;;;;;5032040;28;20026;-73
2023/07/04 08:42:19;;;;;;;12.65;2.35;;;;;;;;;;5032184;28;20033;-76
2023/07/04 08:44:46;;;;;;;12.38;2.80;;;;;;;;;;5032802;28;20026;-75
2023/07/04 08:47:14;;;;;;;18.15;3.40;;;;;;;;;;5033637;28;20064;-74
2023/07/04 08:49:43;;;;;;;10.10;2.60;;;;;;;;;;5032651;28;20029;-74
2023/07/04 08:52:12;;;;;;;14.48;2.90;;;;;;;;;;5031828;28;20029;-74
2023/07/04 08:54:38;;;;;;;10.93;2.63;;;;;;;;;;5032251;28;20022;-75
2023/07/04 08:57:22;;;;;;;14.98;3.00;;;;;;;;;;5032343;28;20036;-74
2023/07/04 08:59:50;;;;;;;9.48;2.28;;;;;;;;;;5031011;28;20074;-74
2023/07/04 09:02:23;;;;;;;14.88;3.75;;;;;;;;;;5030652;28;20104;-75
2023/07/04 09:05:01;;;;;;;10.13;2.33;;;;;;;;;;5033521;28;20044;-73
2023/07/04 09:07:37;;;;;;;6.80;1.95;;;;;;;;;;5034412;28;20014;-75
2023/07/04 09:10:02;;;;;;;11.23;2.55;;;;;;;;;;5034907;28;20040;-74
2023/07/04 09:12:33;;;;;;;4.63;1.85;;;;;;;;;;5033432;28;20033;-75
2023/07/04 09:15:03;;;;;;;11.90;2.33;;;;;;;;;;5032002;28;20112;-75
2023/07/04 09:17:35;;;;;;;9.20;2.30;;;;;;;;;;5031573;28;20060;-74
2023/07/04 09:20:05;;;;;;;11.02;1.88;;;;;;;;;;5032106;28;20089;-75
2023/07/04 09:22:31;;;;;;;10.95;2.17;;;;;;;;;;5032688;28;20117;-74
2023/07/04 09:24:57;;;;;;;7.90;2.30;;;;;;;;;;5033540;28;20036;-75
2023/07/04 09:27:23;;;;;;;14.57;2.47;;;;;;;;;;5033185;28;20022;-74
2023/07/04 09:29:49;;;;;;;10.23;2.25;;;;;;;;;;5033869;28;20036;-73
2023/07/04 09:32:16;;;;;;;9.43;2.08;;;;;;;;;;5034989;28;20025;-73
2023/07/04 09:34:42;;;;;;;7.10;1.55;;;;;;;;;;5036151;28;20538;-73
2023/07/04 09:37:18;;;;;;;7.70;2.38;;;;;;;;;;5034902;28;20033;-75
2023/07/04 09:39:54;;;;;;;6.93;1.73;;;;;;;;;;5033408;28;20028;-74
2023/07/04 09:42:20;;;;;;;11.95;2.17;;;;;;;;;;5031861;28;20028;-74
2023/07/04 09:44:47;;;;;;;9.18;2.05;;;;;;;;;;5032678;28;20557;-75
2023/07/04 09:47:25;;;;;;;6.00;1.70;;;;;;;;;;5032392;28;20022;-73
2023/07/04 09:50:09;;;;;;;6.82;1.50;;;;;;;;;;5033255;28;20017;-73
2023/07/04 09:52:35;;;;;;;7.05;1.52;;;;;;;;;;5031069;28;20080;-74
2023/07/04 09:55:10;;;;;;;10.07;1.55;;;;;;;;;;5031318;28;20541;-73
2023/07/04 09:57:36;;;;;;;11.02;1.67;;;;;;;;;;5031359;28;20026;-73
2023/07/04 10:00:19;;;;;;;4.57;1.45;;;;;;;;;;5030999;28;20033;-74
2023/07/04 10:02:46;;;;;;;6.13;1.52;;;;;;;;;;5030827;28;20018;-74
2023/07/04 10:05:21;;;;;;;15.63;1.50;;;;;;;;;;5031361;28;20022;-74
2023/07/04 10:07:59;;;;;;;13.35;1.80;;;;;;;;;;5031265;28;20032;-74
2023/07/04 10:10:25;;;;;;;8.00;1.75;;;;;;;;;;5031280;28;20029;-73
2023/07/04 10:12:51;;;;;;;5.20;1.30;;;;;;;;;;5030900;28;20026;-75
2023/07/04 10:15:24;;;;;;;8.80;1.48;;;;;;;;;;5034842;28;20032;-74
2023/07/04 10:17:50;;;;;;;10.27;1.33;;;;;;;;;;5034819;28;20037;-74
2023/07/04 10:20:16;;;;;;;9.80;1.55;;;;;;;;;;5035199;28;20030;-74
2023/07/04 10:22:47;;;;;;;4.20;1.50;;;;;;;;;;5034782;28;20075;-75
2023/07/04 10:25:15;;;;;;;7.78;1.65;;;;;;;;;;5035188;28;20432;-75
2023/07/04 10:27:43;;;;;;;6.38;1.10;;;;;;;;;;5033869;28;20032;-75
2023/07/04 10:30:11;;;;;;;4.97;1.40;;;;;;;;;;5034996;28;20092;-74
2023/07/04 10:32:41;;;;;;;6.15;1.00;;;;;;;;;;5034399;28;20434;-74
2023/07/04 10:35:12;;;;;;;4.25;1.30;;;;;;;;;;5034842;28;20028;-73
2023/07/04 10:37:39;;;;;;;5.80;1.45;;;;;;;;;;5035266;28;20033;-75
2023/07/04 10:40:07;;;;;;;5.82;1.30;;;;;;;;;;5035813;28;20116;-75
2023/07/04 10:42:40;;;;;;;11.38;1.60;;;;;;;;;;5034438;28;20030;-74
2023/07/04 10:45:07;;;;;;;4.70;1.67;;;;;;;;;;5034747;28;20053;-74
2023/07/04 10:47:35;;;;;;;8.10;1.30;;;;;;;;;;5035102;28;20033;-76
2023/07/04 10:50:10;;;;;;;5.40;1.63;;;;;;;;;;5036186;28;20030;-74
2023/07/04 10:52:38;;;;;;;5.57;1.40;;;;;;;;;;5035169;28;20029;-74
2023/07/04 10:55:06;;;;;;;6.95;1.67;;;;;;;;;;5035937;28;20022;-75
2023/07/04 10:57:37;;;;;;;9.70;1.67;;;;;;;;;;5036416;28;20108;-75
2023/07/04 11:00:24;;;;;;;5.75;1.45;;;;;;;;;;5038708;28;20037;-74
2023/07/04 11:02:52;;;;;;;3.10;1.23;;;;;;;;;;5033908;28;20037;-74
2023/07/04 11:05:39;;;;;;;6.90;1.60;;;;;;;;;;5034393;28;20035;-73
2023/07/04 11:08:07;;;;;;;7.63;3.35;;;;;;;;;;5033978;28;20052;-74
2023/07/04 11:10:38;;;;;;;4.13;1.60;;;;;;;;;;5035219;28;20022;-74
2023/07/04 11:13:06;;;;;;;5.38;1.95;;;;;;;;;;5033704;28;20061;-74
2023/07/04 11:15:35;;;;;;;4.88;1.65;;;;;;;;;;5033632;28;20045;-74
2023/07/04 11:18:01;;;;;;;4.50;1.25;;;;;;;;;;5034768;28;20040;-74
2023/07/04 11:20:30;;;;;;;4.13;1.40;;;;;;;;;;5037816;28;20030;-75
2023/07/04 11:23:00;;;;;;;2.78;1.10;;;;;;;;;;5033935;28;20521;-75
2023/07/04 11:25:27;;;;;;;3.35;1.00;;;;;;;;;;5035754;28;20026;-74
2023/07/04 11:28:32;;;;;;;5.95;1.30;;;;;;;;;;5037227;28;20663;-76
2023/07/04 11:31:07;;;;;;;6.40;1.58;;;;;;;;;;4958010;28;20065;-76
2023/07/04 11:33:39;;;;;;;3.65;1.38;;;;;;;;;;4978835;28;20035;-77
2023/07/04 11:36:07;;;;;;;2.53;1.23;;;;;;;;;;5011788;28;20056;-75
2023/07/04 11:38:34;;;;;;;10.85;1.48;;;;;;;;;;5035921;28;20049;-75
2023/07/04 11:41:01;;;;;;;9.02;1.75;;;;;;;;;;5034247;28;20029;-74
2023/07/04 11:43:34;;;;;;;5.68;1.42;;;;;;;;;;5034473;28;20049;-75
2023/07/04 11:46:01;;;;;;;5.90;2.90;;;;;;;;;;5036453;28;20130;-74
2023/07/04 11:48:28;;;;;;;4.75;1.50;;;;;;;;;;5034683;28;20029;-75
2023/07/04 11:51:00;;;;;;;7.55;1.60;;;;;;;;;;5035182;28;20022;-76
2023/07/04 11:53:26;;;;;;;2.28;1.13;;;;;;;;;;5034125;28;20187;-77
2023/07/04 11:56:05;;;;;;;6.50;1.40;;;;;;;;;;5037144;28;20105;-75
2023/07/04 11:58:31;;;;;;;4.05;1.30;;;;;;;;;;5047228;28;20156;-74
2023/07/04 12:00:57;;;;;;;5.10;1.75;;;;;;;;;;5020529;28;20377;-74
2023/07/04 12:03:24;;;;;;;5.05;1.27;;;;;;;;;;5013566;28;20097;-76
2023/07/04 12:05:57;;;;;;;4.22;1.02;;;;;;;;;;5015449;28;20022;-75
2023/07/04 12:08:33;;;;;;;2.97;1.20;;;;;;;;;;5023500;28;20021;-75
2023/07/04 12:11:00;;;;;;;2.53;1.05;;;;;;;;;;5019226;28;20038;-74
2023/07/04 12:13:27;;;;;;;4.63;1.60;;;;;;;;;;5013824;28;20034;-75
2023/07/04 12:15:55;;;;;;;3.42;1.13;;;;;;;;;;5029142;28;20034;-74
2023/07/04 12:18:27;;;;;;;5.25;1.95;;;;;;;;;;5032646;28;20026;-73
2023/07/04 12:20:54;;;;;;;3.75;1.25;;;;;;;;;;5029455;28;20033;-74
2023/07/04 12:23:21;;;;;;;4.15;1.38;;;;;;;;;;5027747;28;20025;-72
2023/07/04 12:25:48;;;;;;;3.42;1.55;;;;;;;;;;5012902;28;20036;-74
2023/07/04 12:28:16;;;;;;;8.20;1.30;;;;;;;;;;5012616;28;20021;-77
2023/07/04 12:30:48;;;;;;;7.47;1.40;;;;;;;;;;5012496;28;20033;-74
2023/07/04 12:33:21;;;;;;;7.20;1.40;;;;;;;;;;5012491;28;20022;-73
2023/07/04 12:35:54;;;;;;;4.90;1.50;;;;;;;;;;5012390;28;20034;-73
2023/07/04 12:38:21;;;;;;;5.32;1.20;;;;;;;;;;5012020;28;20033;-74
2023/07/04 12:40:48;;;;;;;6.55;1.70;;;;;;;;;;5012460;28;20344;-74
2023/07/04 12:43:15;;;;;;;6.68;1.42;;;;;;;;;;5012279;28;20061;-74
2023/07/04 12:45:41;;;;;;;3.28;1.13;;;;;;;;;;5012739;28;20030;-75
2023/07/04 12:48:10;;;;;;;9.15;1.80;;;;;;;;;;5012983;28;20064;-77
2023/07/04 12:50:38;;;;;;;6.78;1.77;;;;;;;;;;5013258;28;20040;-75
2023/07/04 12:53:04;;;;;;;5.07;1.88;;;;;;;;;;5012621;28;20124;-74
2023/07/04 12:55:32;;;;;;;9.68;1.77;;;;;;;;;;5013692;28;20103;-74
2023/07/04 12:57:59;;;;;;;10.43;1.85;;;;;;;;;;5043688;28;20115;-74
2023/07/04 13:00:48;;;;;;;7.65;1.70;;;;;;;;;;5042229;28;20572;-74
2023/07/04 13:03:16;;;;;;;5.65;1.40;;;;;;;;;;5031778;28;20038;-75
2023/07/04 13:05:44;;;;;;;6.85;1.63;;;;;;;;;;5035562;28;20028;-74
2023/07/04 13:08:12;;;;;;;6.85;2.15;;;;;;;;;;5041050;28;20029;-74
2023/07/04 13:10:38;;;;;;;10.00;1.63;;;;;;;;;;5042595;28;20056;-74
2023/07/04 13:13:05;;;;;;;3.60;1.30;;;;;;;;;;5045141;28;20075;-75
2023/07/04 13:15:35;;;;;;;4.80;1.80;;;;;;;;;;5044953;28;20037;-74
2023/07/04 13:18:05;;;;;;;8.00;1.60;;;;;;;;;;5027750;28;20467;-75
2023/07/04 13:20:32;;;;;;;9.98;3.60;;;;;;;;;;5035039;28;20025;-75
2023/07/04 13:23:37;;;;;;;4.43;1.80;;;;;;;;;;5040460;28;20029;-75
2023/07/04 13:26:03;;;;;;;5.20;1.60;;;;;;;;;;4980509;28;20054;-74
2023/07/04 13:28:33;;;;;;;4.90;1.55;;;;;;;;;;4981466;28;20541;-77
2023/07/04 13:31:17;;;;;;;7.53;2.05;;;;;;;;;;5006668;28;20041;-75
2023/07/04 13:33:43;;;;;;;9.68;1.83;;;;;;;;;;5042710;28;20026;-74
2023/07/04 13:36:15;;;;;;;6.47;1.50;;;;;;;;;;5044217;28;20491;-75
2023/07/04 13:38:41;;;;;;;31.27;14.73;;;;;;;;;;5042286;28;20147;-74
2023/07/04 13:41:08;;;;;;;14.45;5.22;;;;;;;;;;5038275;28;20049;-74
2023/07/04 13:43:37;;;;;;;10.68;4.85;;;;;;;;;;5033824;28;20087;-75
2023/07/04 13:46:04;;;;;;;11.38;2.67;;;;;;;;;;5048258;28;20360;-74
2023/07/04 13:48:30;;;;;;;8.98;3.40;;;;;;;;;;5042860;28;20029;-74
2023/07/04 13:50:56;;;;;;;6.82;2.30;;;;;;;;;;5035623;28;20483;-76
2023/07/04 13:53:23;;;;;;;6.97;2.50;;;;;;;;;;5043612;28;20398;-75
2023/07/04 13:55:49;;;;;;;8.57;3.05;;;;;;;;;;5044035;28;20053;-74
2023/07/04 13:58:15;;;;;;;8.23;2.60;;;;;;;;;;5042675;28;20075;-75
2023/07/04 14:00:42;;;;;;;6.05;1.85;;;;;;;;;;5037894;28;20061;-74
2023/07/04 14:03:08;;;;;;;7.50;1.60;;;;;;;;;;5034791;28;20021;-73
2023/07/04 14:05:35;;;;;;;10.75;1.70;;;;;;;;;;5035156;28;20037;-73
2023/07/04 14:08:01;;;;;;;9.30;2.95;;;;;;;;;;5033607;28;20359;-74
2023/07/04 14:10:27;;;;;;;6.70;2.22;;;;;;;;;;5034677;28;20026;-73
2023/07/04 14:12:53;;;;;;;6.68;1.95;;;;;;;;;;5034491;28;20407;-73
2023/07/04 14:15:19;;;;;;;10.60;2.53;;;;;;;;;;5036346;28;20021;-74
2023/07/04 14:17:45;;;;;;;10.98;1.75;;;;;;;;;;5038151;28;20645;-74
2023/07/04 14:20:11;;;;;;;6.65;2.30;;;;;;;;;;5039148;28;20033;-74
2023/07/04 14:22:37;;;;;;;11.25;2.25;;;;;;;;;;5038204;28;20036;-74
2023/07/04 14:25:03;;;;;;;5.00;1.80;;;;;;;;;;5036592;28;20533;-75
2023/07/04 14:27:30;;;;;;;6.55;1.70;;;;;;;;;;5041379;28;20025;-77
2023/07/04 14:29:56;;;;;;;7.38;1.70;;;;;;;;;;5034956;28;20347;-77
2023/07/04 14:32:22;;;;;;;11.57;1.98;;;;;;;;;;5035389;28;20021;-74
2023/07/04 14:34:48;;;;;;;11.18;2.03;;;;;;;;;;5034612;28;20057;-73
2023/07/04 14:37:14;;;;;;;5.20;1.63;;;;;;;;;;5034599;28;20026;-75
2023/07/04 14:39:40;;;;;;;8.73;1.42;;;;;;;;;;5031942;28;20021;-74